Time;durP1;ratioP1;P1;durP2;ratioP2;P2;SDS_P1;SDS_P2;PMS_P1;PMS_P2;Temp;Humidity;BMP_temperature;BMP_pressure;BME280_temperature;BME280_humidity;BME280_pressure;Samples;Min_cycle;Max_cycle;Signal;HPM_P1;HPM_P2
2023/11/10 00:02:17;;;;;;;11.88;6.55;;;;;;;4.70;55.22;94196.63;4962164;28;20046;-74
2023/11/10 00:04:45;;;;;;;5.28;4.78;;;;;;;4.72;55.23;94201.63;4966084;28;20122;-74
2023/11/10 00:07:11;;;;;;;7.97;5.20;;;;;;;4.72;55.23;94194.53;4964499;28;20026;-74
2023/11/10 00:09:36;;;;;;;9.45;5.90;;;;;;;4.64;55.63;94187.97;4967062;28;20022;-75
2023/11/10 00:12:02;;;;;;;12.15;6.63;;;;;;;4.48;55.65;94201.41;4967080;28;20039;-75
2023/11/10 00:14:29;;;;;;;7.20;5.65;;;;;;;4.42;55.95;94207.72;4965432;28;20049;-75
2023/11/10 00:16:55;;;;;;;7.78;4.78;;;;;;;4.11;56.12;94155.03;4976159;28;20258;-75
2023/11/10 00:19:21;;;;;;;7.28;4.95;;;;;;;4.39;56.20;94177.47;4966077;28;20496;-75
2023/11/10 00:21:49;;;;;;;6.88;5.15;;;;;;;4.37;56.13;94178.75;4964799;28;20027;-74
2023/11/10 00:24:16;;;;;;;10.38;7.13;;;;;;;4.40;56.35;94204.59;4960393;28;20054;-74
2023/11/10 00:26:41;;;;;;;9.48;6.82;;;;;;;4.42;56.55;94197.19;4966127;28;20035;-74
2023/11/10 00:29:06;;;;;;;6.47;5.28;;;;;;;4.48;56.57;94204.03;4966270;28;20702;-76
2023/11/10 00:31:33;;;;;;;7.13;4.68;;;;;;;4.45;56.24;94205.38;4974916;28;20038;-75
2023/11/10 00:33:58;;;;;;;7.68;4.35;;;;;;;4.49;55.92;94211.69;4969165;28;20448;-74
2023/11/10 00:36:24;;;;;;;11.20;6.18;;;;;;;4.54;55.58;94209.03;4969125;28;20034;-74
2023/11/10 00:38:50;;;;;;;9.68;6.60;;;;;;;4.40;56.10;94201.94;4969913;28;20038;-74
2023/11/10 00:41:16;;;;;;;11.32;6.10;;;;;;;4.27;56.35;94180.31;4967518;28;20589;-75
2023/11/10 00:43:41;;;;;;;6.82;5.18;;;;;;;4.34;56.36;94205.63;4967618;28;20421;-74
2023/11/10 00:46:07;;;;;;;7.18;4.32;;;;;;;4.42;55.97;94191.91;4968421;28;20093;-74
2023/11/10 00:48:33;;;;;;;8.45;6.03;;;;;;;4.45;56.24;94205.38;4968702;28;20058;-74
2023/11/10 00:50:59;;;;;;;9.45;4.97;;;;;;;4.32;56.25;94190.09;4967726;28;20043;-73
2023/11/10 00:53:26;;;;;;;7.25;5.82;;;;;;;4.27;56.28;94180.31;4973439;28;20039;-75
2023/11/10 00:55:53;;;;;;;14.35;7.32;;;;;;;4.36;56.33;94192.97;4966915;28;20088;-74
2023/11/10 00:58:19;;;;;;;10.18;6.38;;;;;;;4.26;56.44;94193.75;4968759;28;20120;-74
2023/11/10 01:00:45;;;;;;;10.43;5.95;;;;;;;4.19;56.72;94182.69;4967966;28;20022;-74
2023/11/10 01:03:10;;;;;;;12.00;5.70;;;;;;;4.18;56.61;94181.13;4968067;28;20045;-74
2023/11/10 01:05:36;;;;;;;11.73;6.10;;;;;;;4.20;57.02;94194.81;4970593;28;20030;-74
2023/11/10 01:08:01;;;;;;;9.45;5.45;;;;;;;4.13;57.14;94174.00;4968257;28;20576;-75
2023/11/10 01:10:27;;;;;;;6.93;5.72;;;;;;;4.22;57.07;94185.59;4969894;28;20050;-74
2023/11/10 01:12:52;;;;;;;14.48;8.23;;;;;;;4.26;56.75;94177.94;4969688;28;20029;-74
2023/11/10 01:15:19;;;;;;;15.25;8.35;;;;;;;4.13;56.96;94150.31;4965343;28;20065;-74
2023/11/10 01:17:45;;;;;;;12.13;7.13;;;;;;;4.28;56.64;94174.00;4969002;28;20158;-74
2023/11/10 01:20:11;;;;;;;10.55;6.07;;;;;;;4.27;56.52;94169.00;4966024;28;20048;-74
2023/11/10 01:22:43;;;;;;;10.75;6.43;;;;;;;4.23;56.91;94181.91;4968933;28;20023;-74
2023/11/10 01:25:12;;;;;;;11.52;6.85;;;;;;;4.16;57.25;94173.47;4982028;28;20205;-74
2023/11/10 01:27:37;;;;;;;9.80;7.28;;;;;;;4.18;57.69;94181.91;4967412;28;20117;-75
2023/11/10 01:30:03;;;;;;;12.02;7.78;;;;;;;4.15;57.33;94171.13;4966835;28;20432;-75
2023/11/10 01:32:28;;;;;;;12.65;6.50;;;;;;;4.29;57.31;94177.44;4966824;28;20667;-74
2023/11/10 01:34:54;;;;;;;11.65;6.15;;;;;;;4.15;57.40;94150.84;4969434;28;20034;-74
2023/11/10 01:37:20;;;;;;;8.55;5.93;;;;;;;4.19;57.56;94161.63;4967332;28;20026;-74
2023/11/10 01:39:46;;;;;;;10.32;5.72;;;;;;;4.13;57.84;94157.41;4964781;28;20018;-74
2023/11/10 01:42:11;;;;;;;8.90;5.78;;;;;;;4.02;57.52;94150.56;4964486;28;20046;-74
2023/11/10 01:44:37;;;;;;;13.00;7.15;;;;;;;4.16;57.21;94162.94;4968265;28;20473;-74
2023/11/10 01:47:04;;;;;;;13.15;7.88;;;;;;;4.09;57.91;94165.06;4964768;28;20580;-74
2023/11/10 01:49:29;;;;;;;15.30;8.05;;;;;;;4.16;58.04;94162.94;4965232;28;20050;-74
2023/11/10 01:51:55;;;;;;;10.57;7.10;;;;;;;4.03;58.06;94147.69;4967148;28;20026;-74
2023/11/10 01:54:24;;;;;;;12.23;7.18;;;;;;;3.91;58.16;94134.03;4969428;28;20631;-74
2023/11/10 01:56:51;;;;;;;12.93;7.60;;;;;;;4.03;58.15;94152.16;4966908;28;20038;-74
2023/11/10 01:59:17;;;;;;;8.80;6.68;;;;;;;4.13;58.29;94162.69;4958633;28;20042;-75
2023/11/10 02:01:45;;;;;;;7.50;5.72;;;;;;;4.16;58.04;94147.16;4968479;28;20057;-74
2023/11/10 02:04:12;;;;;;;9.07;5.20;;;;;;;4.13;58.34;94147.69;4969069;28;20034;-73
2023/11/10 02:06:41;;;;;;;5.57;3.42;;;;;;;4.06;58.49;94136.63;4968090;28;20320;-74
2023/11/10 02:09:07;;;;;;;3.03;2.72;;;;;;;4.14;58.21;94148.47;4965315;28;20532;-74
2023/11/10 02:11:36;;;;;;;2.95;2.65;;;;;;;4.05;58.46;94136.91;4964966;28;20035;-75
2023/11/10 02:14:02;;;;;;;4.63;2.97;;;;;;;4.11;58.52;94149.03;4964436;28;20066;-75
2023/11/10 02:16:29;;;;;;;5.40;3.33;;;;;;;3.99;58.68;94109.00;4961544;28;20046;-76
2023/11/10 02:18:55;;;;;;;4.60;2.67;;;;;;;4.13;58.41;94142.41;4948608;28;20026;-74
2023/11/10 02:21:22;;;;;;;2.95;2.55;;;;;;;4.07;59.02;94143.47;4963425;28;20131;-73
2023/11/10 02:23:51;;;;;;;4.50;2.97;;;;;;;4.13;58.42;94139.00;4964328;28;21625;-75
2023/11/10 02:26:17;;;;;;;4.55;3.20;;;;;;;3.94;58.09;94096.63;4969159;28;20291;-74
2023/11/10 02:28:42;;;;;;;3.63;3.33;;;;;;;4.16;58.62;94130.59;4968925;28;20050;-74
2023/11/10 02:31:08;;;;;;;4.10;3.28;;;;;;;4.12;58.58;94132.16;4965108;28;20400;-75
2023/11/10 02:33:33;;;;;;;4.90;3.55;;;;;;;4.09;58.54;94140.59;4969180;28;20026;-74
2023/11/10 02:36:00;;;;;;;6.63;4.45;;;;;;;4.09;58.55;94120.31;4965748;28;20382;-73
2023/11/10 02:38:26;;;;;;;5.22;4.30;;;;;;;4.03;58.70;94102.16;4966245;28;20042;-74
2023/11/10 02:40:51;;;;;;;3.72;3.38;;;;;;;3.92;58.80;94114.53;4966189;28;20039;-73
2023/11/10 02:43:18;;;;;;;4.40;3.63;;;;;;;4.08;58.83;94128.47;4966072;28;20037;-75
2023/11/10 02:45:43;;;;;;;7.35;4.53;;;;;;;4.13;58.49;94121.38;4968436;28;20027;-74
2023/11/10 02:48:09;;;;;;;5.18;3.38;;;;;;;4.13;58.21;94108.19;4964022;28;20028;-76
2023/11/10 02:50:35;;;;;;;6.88;4.25;;;;;;;4.12;58.57;94116.34;4966424;28;20427;-75
2023/11/10 02:53:00;;;;;;;5.50;3.80;;;;;;;4.02;58.23;94109.25;4966861;28;20130;-76
2023/11/10 02:55:26;;;;;;;6.03;4.38;;;;;;;3.98;58.93;94129.25;4966057;28;20022;-75
2023/11/10 02:57:51;;;;;;;5.35;4.15;;;;;;;4.07;58.63;94111.09;4965713;28;20476;-75
2023/11/10 03:00:17;;;;;;;7.32;5.57;;;;;;;4.14;58.29;94109.78;4966552;28;20530;-75
2023/11/10 03:02:42;;;;;;;9.63;6.18;;;;;;;4.11;58.85;94136.63;4967020;28;20037;-75
2023/11/10 03:05:08;;;;;;;10.77;6.82;;;;;;;3.87;59.96;94111.13;4965334;28;20043;-76
2023/11/10 03:07:33;;;;;;;10.38;7.00;;;;;;;3.83;60.13;94116.09;4963830;28;20034;-74
2023/11/10 03:09:58;;;;;;;11.98;7.93;;;;;;;3.86;60.04;94110.34;4967026;28;20020;-75
2023/11/10 03:12:24;;;;;;;14.57;8.25;;;;;;;3.90;60.36;94111.38;4967419;28;20035;-74
2023/11/10 03:14:50;;;;;;;12.02;8.20;;;;;;;3.86;60.53;94114.81;4963857;28;20030;-74
2023/11/10 03:17:16;;;;;;;13.68;8.23;;;;;;;4.02;60.51;94119.78;4966114;28;20425;-75
2023/11/10 03:19:41;;;;;;;11.70;8.15;;;;;;;4.07;60.50;94111.09;4963723;28;20058;-74
2023/11/10 03:22:08;;;;;;;11.07;8.18;;;;;;;3.98;60.47;94102.16;4965980;28;20033;-75
2023/11/10 03:24:33;;;;;;;12.52;8.00;;;;;;;4.23;59.78;94116.09;4966270;28;20125;-76
2023/11/10 03:26:59;;;;;;;12.80;8.70;;;;;;;3.93;60.44;94110.84;4966742;28;20476;-75
2023/11/10 03:29:26;;;;;;;11.15;7.68;;;;;;;4.03;60.93;94100.31;4964161;28;20545;-74
2023/11/10 03:31:52;;;;;;;9.35;6.57;;;;;;;4.14;61.03;94112.41;4978928;28;20089;-74
2023/11/10 03:34:18;;;;;;;11.23;6.72;;;;;;;4.26;60.40;94099.75;4966214;28;20030;-74
2023/11/10 03:36:44;;;;;;;12.90;5.57;;;;;;;4.29;60.85;94093.19;4966704;28;20026;-74
2023/11/10 03:39:09;;;;;;;6.65;5.45;;;;;;;4.34;60.92;94100.31;4966474;28;20046;-74
2023/11/10 03:41:37;;;;;;;10.13;6.38;;;;;;;4.19;60.46;94072.91;4965898;28;20650;-74
2023/11/10 03:44:03;;;;;;;10.20;5.72;;;;;;;4.33;60.64;94088.97;4964965;28;20041;-74
2023/11/10 03:46:29;;;;;;;7.55;5.05;;;;;;;4.31;60.77;94087.69;4965067;28;20034;-76
2023/11/10 03:48:54;;;;;;;6.00;5.13;;;;;;;4.43;60.32;94081.06;4963925;28;20026;-75
2023/11/10 03:51:20;;;;;;;6.50;4.70;;;;;;;4.37;60.19;94073.44;4966803;28;20043;-73
2023/11/10 03:53:45;;;;;;;7.68;4.63;;;;;;;4.43;60.03;94067.88;4965569;28;20413;-74
2023/11/10 03:56:11;;;;;;;12.25;6.45;;;;;;;4.21;60.24;94051.56;4965499;28;20105;-74
2023/11/10 03:58:36;;;;;;;6.72;4.97;;;;;;;4.47;60.08;94068.13;4966033;28;20393;-74
2023/11/10 04:01:07;;;;;;;5.50;4.97;;;;;;;4.34;60.58;94058.97;4967568;28;20497;-74
2023/11/10 04:03:32;;;;;;;5.95;5.05;;;;;;;4.33;60.59;94051.31;4968829;28;20484;-75
2023/11/10 04:05:57;;;;;;;6.50;5.05;;;;;;;4.18;61.31;94060.03;4968093;28;20089;-74
2023/11/10 04:08:23;;;;;;;6.32;4.50;;;;;;;4.30;60.91;94051.88;4967811;28;20145;-74
2023/11/10 04:10:48;;;;;;;6.80;4.25;;;;;;;4.19;60.96;94046.59;4969460;28;20169;-75
2023/11/10 04:13:14;;;;;;;8.98;4.93;;;;;;;4.24;61.04;94049.22;4968475;28;20037;-75
2023/11/10 04:15:39;;;;;;;7.57;5.00;;;;;;;4.33;60.62;94049.47;4970610;28;20062;-73
2023/11/10 04:18:05;;;;;;;6.25;5.38;;;;;;;4.21;60.49;94049.72;4966730;28;20034;-74
2023/11/10 04:20:30;;;;;;;9.85;5.78;;;;;;;4.09;60.62;94053.72;4982349;28;20343;-75
2023/11/10 04:22:56;;;;;;;9.77;6.22;;;;;;;4.18;60.48;94047.66;4969778;28;20113;-74
2023/11/10 04:25:21;;;;;;;7.15;5.82;;;;;;;4.25;60.02;94061.34;4968957;28;20054;-75
2023/11/10 04:27:47;;;;;;;7.82;4.88;;;;;;;4.08;60.35;94060.81;4968404;28;20613;-74
2023/11/10 04:30:13;;;;;;;6.80;4.97;;;;;;;4.26;59.83;94052.34;4965826;28;20701;-74
2023/11/10 04:32:38;;;;;;;6.97;5.10;;;;;;;4.27;59.98;94058.41;4969798;28;20042;-74
2023/11/10 04:35:04;;;;;;;7.43;5.82;;;;;;;4.14;60.24;94059.78;4968586;28;20092;-74
2023/11/10 04:37:29;;;;;;;8.52;5.57;;;;;;;3.95;60.58;94029.81;4968791;28;20129;-75
2023/11/10 04:39:55;;;;;;;5.50;4.93;;;;;;;3.92;60.51;94054.00;4970796;28;20296;-74
2023/11/10 04:42:20;;;;;;;9.20;6.13;;;;;;;3.89;60.68;94036.13;4967578;28;20067;-74
2023/11/10 04:44:46;;;;;;;7.68;4.53;;;;;;;4.00;60.70;94037.69;4967390;28;20400;-75
2023/11/10 04:47:12;;;;;;;7.28;5.28;;;;;;;4.13;60.51;94052.91;4964591;28;20042;-74
2023/11/10 04:49:38;;;;;;;5.45;4.75;;;;;;;3.99;60.36;94033.47;4973716;28;20505;-74
2023/11/10 04:52:04;;;;;;;8.80;5.18;;;;;;;4.18;59.63;94055.53;4967095;28;20036;-73
2023/11/10 04:54:30;;;;;;;6.95;4.72;;;;;;;4.04;60.16;94053.72;4967274;28;20404;-74
2023/11/10 04:56:55;;;;;;;8.30;5.13;;;;;;;3.79;60.57;94031.66;4969408;28;20030;-73
2023/11/10 04:59:21;;;;;;;7.50;5.20;;;;;;;3.72;60.50;94004.81;4969195;28;20042;-73
2023/11/10 05:01:47;;;;;;;7.78;4.72;;;;;;;3.81;60.63;94034.84;4966714;28;20858;-74
2023/11/10 05:04:13;;;;;;;5.03;3.90;;;;;;;3.92;60.87;94040.84;4968697;28;20239;-75
2023/11/10 05:06:39;;;;;;;4.75;3.92;;;;;;;3.88;60.58;94024.00;4967443;28;20109;-75
2023/11/10 05:09:06;;;;;;;10.23;4.22;;;;;;;3.82;60.53;94043.50;4974600;28;20061;-74
2023/11/10 05:11:33;;;;;;;6.05;4.68;;;;;;;3.99;59.77;94037.94;4965915;28;20607;-74
2023/11/10 05:13:59;;;;;;;8.43;4.88;;;;;;;3.97;59.97;94040.84;4974206;28;20482;-74
2023/11/10 05:16:24;;;;;;;6.22;4.50;;;;;;;3.87;60.52;94040.84;4966809;28;20045;-74
2023/11/10 05:18:50;;;;;;;10.40;4.18;;;;;;;3.69;60.75;94023.00;4967857;28;20038;-74
2023/11/10 05:21:16;;;;;;;4.70;4.20;;;;;;;3.75;61.15;94042.97;4967528;28;20039;-75
2023/11/10 05:23:43;;;;;;;5.00;4.47;;;;;;;3.87;61.16;94046.13;4967676;28;20068;-74
2023/11/10 05:26:09;;;;;;;11.10;3.70;;;;;;;3.79;60.91;94044.03;4966997;28;20763;-74
2023/11/10 05:28:34;;;;;;;7.15;4.63;;;;;;;3.83;61.09;94059.03;4968810;28;20122;-75
2023/11/10 05:31:00;;;;;;;6.45;3.92;;;;;;;3.95;61.11;94053.50;4968345;28;20390;-74
2023/11/10 05:33:26;;;;;;;7.95;4.70;;;;;;;3.98;60.91;94026.63;4965704;28;20034;-74
2023/11/10 05:35:51;;;;;;;6.03;4.50;;;;;;;4.03;61.19;94036.34;4972273;28;20034;-74
2023/11/10 05:38:17;;;;;;;5.38;4.57;;;;;;;4.06;60.96;94057.66;4968435;28;20531;-74
2023/11/10 05:40:42;;;;;;;8.82;5.95;;;;;;;3.97;62.00;94054.00;4965256;28;20062;-75
2023/11/10 05:43:08;;;;;;;14.73;9.02;;;;;;;4.00;61.71;94052.69;4968266;28;20038;-75
2023/11/10 05:45:34;;;;;;;14.50;8.75;;;;;;;4.12;61.04;94043.44;4967286;28;20022;-74
2023/11/10 05:48:00;;;;;;;36.88;17.70;;;;;;;4.07;61.88;94032.13;4965172;28;20059;-73
2023/11/10 05:50:26;;;;;;;24.50;13.30;;;;;;;4.34;60.93;94068.72;4966583;28;20085;-74
2023/11/10 05:52:51;;;;;;;28.20;13.30;;;;;;;4.21;60.90;94018.16;4962294;28;20035;-74
2023/11/10 05:55:16;;;;;;;23.02;11.98;;;;;;;4.04;61.86;94044.00;4949587;28;20054;-75
2023/11/10 05:57:42;;;;;;;12.43;7.28;;;;;;;4.22;61.62;94051.31;4965841;28;20034;-74
2023/11/10 06:00:08;;;;;;;16.73;7.93;;;;;;;4.53;61.20;94049.41;4965482;28;20035;-74
2023/11/10 06:02:33;;;;;;;13.50;7.03;;;;;;;4.49;61.09;94032.59;4965869;28;20034;-73
2023/11/10 06:04:59;;;;;;;9.02;6.18;;;;;;;4.76;60.55;94048.00;4967727;28;20041;-74
2023/11/10 06:07:24;;;;;;;8.35;6.38;;;;;;;4.71;60.39;94034.84;4964920;28;20492;-74
2023/11/10 06:09:50;;;;;;;11.50;6.53;;;;;;;4.90;60.08;94056.88;4972926;28;20030;-75
2023/11/10 06:12:17;;;;;;;14.20;7.32;;;;;;;4.79;59.76;94023.75;4966267;28;20069;-73
2023/11/10 06:14:42;;;;;;;13.10;7.50;;;;;;;4.93;60.34;94060.84;4965953;28;20525;-73
2023/11/10 06:17:08;;;;;;;13.57;7.90;;;;;;;4.83;61.04;94045.88;4965034;28;20157;-75
2023/11/10 06:19:33;;;;;;;12.07;7.55;;;;;;;4.92;60.99;94072.44;4938776;28;20533;-74
2023/11/10 06:22:00;;;;;;;18.98;7.57;;;;;;;5.10;60.19;94056.78;4964301;28;20110;-74
2023/11/10 06:24:25;;;;;;;15.27;7.22;;;;;;;5.01;59.42;94049.72;4963559;28;20061;-74
2023/11/10 06:26:50;;;;;;;11.32;7.10;;;;;;;5.12;59.58;94053.88;4962132;28;20042;-73
2023/11/10 06:29:16;;;;;;;12.75;7.35;;;;;;;5.29;59.25;94062.19;4963031;28;20034;-74
2023/11/10 06:31:42;;;;;;;14.48;7.47;;;;;;;5.36;59.50;94054.78;4962790;28;20030;-75
2023/11/10 06:34:07;;;;;;;13.50;6.57;;;;;;;5.44;59.35;94056.81;4966266;28;20384;-75
2023/11/10 06:36:33;;;;;;;12.35;6.47;;;;;;;5.47;59.37;94050.22;4961881;28;20019;-74
2023/11/10 06:38:58;;;;;;;10.02;7.32;;;;;;;5.45;59.39;94054.97;4964325;28;20374;-75
2023/11/10 06:41:24;;;;;;;12.30;7.53;;;;;;;5.36;59.33;94032.91;4962449;28;20035;-75
2023/11/10 06:43:49;;;;;;;14.43;6.85;;;;;;;5.65;58.71;94017.91;4963957;28;20042;-74
2023/11/10 06:46:20;;;;;;;10.40;6.93;;;;;;;5.77;58.50;94039.44;4962764;28;20026;-74
2023/11/10 06:48:47;;;;;;;18.13;10.18;;;;;;;5.72;58.96;94036.84;4963370;28;20385;-74
2023/11/10 06:51:12;;;;;;;19.45;9.63;;;;;;;5.81;58.26;94032.53;4963715;28;20038;-74
2023/11/10 06:53:37;;;;;;;17.20;7.90;;;;;;;5.93;58.23;94030.31;4965546;28;20066;-74
2023/11/10 06:56:03;;;;;;;11.43;7.38;;;;;;;5.94;57.66;94013.41;4968110;28;20508;-75
2023/11/10 06:58:29;;;;;;;13.48;7.07;;;;;;;6.02;57.06;94033.91;4964911;28;20043;-76
2023/11/10 07:00:54;;;;;;;15.07;8.00;;;;;;;5.87;57.77;94023.50;4960203;28;20022;-75
2023/11/10 07:03:21;;;;;;;11.45;7.78;;;;;;;5.91;56.79;94008.69;4965621;28;20527;-74
2023/11/10 07:05:47;;;;;;;16.65;7.63;;;;;;;5.90;56.82;94001.84;4965109;28;20101;-75
2023/11/10 07:08:13;;;;;;;9.07;6.53;;;;;;;5.88;57.27;94019.00;4964264;28;20451;-74
2023/11/10 07:10:47;;;;;;;12.55;7.95;;;;;;;5.73;57.74;93980.34;4965584;28;20130;-75
2023/11/10 07:13:16;;;;;;;12.50;7.28;;;;;;;6.08;57.34;94012.75;4964781;28;20035;-75
2023/11/10 07:15:42;;;;;;;12.73;8.02;;;;;;;5.74;57.07;94005.66;4962081;28;20031;-75
2023/11/10 07:18:08;;;;;;;10.93;7.75;;;;;;;5.79;58.11;94016.19;4955181;28;20307;-75
2023/11/10 07:20:33;;;;;;;17.15;9.48;;;;;;;5.85;57.48;93999.25;4961969;28;20026;-74
2023/11/10 07:23:00;;;;;;;11.13;7.07;;;;;;;6.06;57.43;94025.44;4963399;28;20121;-75
2023/11/10 07:25:26;;;;;;;15.00;8.25;;;;;;;6.16;57.04;94014.81;4955558;28;20057;-75
2023/11/10 07:27:55;;;;;;;12.30;7.53;;;;;;;6.09;57.29;94001.91;4967337;28;20022;-75
2023/11/10 07:30:22;;;;;;;12.57;8.35;;;;;;;6.28;57.23;93997.50;4963386;28;20039;-75
2023/11/10 07:32:49;;;;;;;13.27;8.13;;;;;;;6.34;56.57;93985.03;4967395;28;20039;-74
2023/11/10 07:35:16;;;;;;;17.13;8.40;;;;;;;6.46;56.54;93995.22;4965047;28;20496;-75
2023/11/10 07:37:44;;;;;;;15.45;8.98;;;;;;;6.37;56.11;93997.66;4968374;28;20042;-74
2023/11/10 07:40:13;;;;;;;23.17;9.40;;;;;;;6.26;55.67;93983.03;4969882;28;20022;-76
2023/11/10 07:42:42;;;;;;;14.40;10.18;;;;;;;6.23;56.06;93984.34;4969353;28;20167;-73
2023/11/10 07:45:15;;;;;;;19.80;8.65;;;;;;;6.50;56.03;93988.28;4975415;28;20359;-74
2023/11/10 07:47:44;;;;;;;18.38;9.23;;;;;;;6.69;56.22;94003.09;4967498;28;20125;-77
2023/11/10 07:50:10;;;;;;;24.40;8.98;;;;;;;6.45;56.24;94009.47;4970225;28;20579;-75
2023/11/10 07:52:39;;;;;;;12.32;9.18;;;;;;;6.31;56.38;94001.44;4969500;28;20053;-74
2023/11/10 07:55:06;;;;;;;12.85;8.95;;;;;;;6.25;57.09;93995.44;4967334;28;20026;-74
2023/11/10 07:57:32;;;;;;;21.90;9.98;;;;;;;6.40;56.54;93989.19;4969280;28;20035;-75
2023/11/10 07:59:59;;;;;;;14.80;9.20;;;;;;;6.40;57.46;93983.91;4967833;28;20520;-75
2023/11/10 08:02:24;;;;;;;15.98;9.45;;;;;;;6.56;56.92;93968.63;4981848;28;20079;-75
2023/11/10 08:04:50;;;;;;;17.90;9.63;;;;;;;6.78;56.22;93996.13;4968672;28;20612;-75
2023/11/10 08:07:15;;;;;;;16.15;7.93;;;;;;;6.97;55.78;93984.75;4965746;28;20484;-76
2023/11/10 08:09:41;;;;;;;13.80;8.50;;;;;;;6.94;55.78;93987.97;4968751;28;20030;-75
2023/11/10 08:12:07;;;;;;;14.43;8.75;;;;;;;6.63;56.19;93982.31;4982104;28;20389;-74
2023/11/10 08:14:32;;;;;;;18.27;9.63;;;;;;;6.16;56.72;93977.84;4966670;28;20043;-75
2023/11/10 08:16:58;;;;;;;16.85;9.18;;;;;;;6.33;57.37;93988.72;4970012;28;20513;-75
2023/11/10 08:19:23;;;;;;;15.65;8.90;;;;;;;6.54;57.63;93976.06;4968556;28;20180;-75
2023/11/10 08:21:49;;;;;;;11.30;9.38;;;;;;;6.70;56.80;93951.78;4967503;28;20027;-75
2023/11/10 08:24:15;;;;;;;15.05;9.60;;;;;;;6.73;56.51;93956.53;4967400;28;20057;-75
2023/11/10 08:26:41;;;;;;;17.60;9.70;;;;;;;6.97;57.31;93966.25;4968954;28;20037;-74
2023/11/10 08:29:07;;;;;;;14.60;8.95;;;;;;;7.17;56.80;93976.53;4967469;28;20469;-74
2023/11/10 08:31:32;;;;;;;15.52;9.00;;;;;;;6.95;57.22;93969.16;4972690;28;20044;-74
2023/11/10 08:33:58;;;;;;;15.43;9.48;;;;;;;7.17;56.83;93952.72;4966812;28;20395;-75
2023/11/10 08:36:23;;;;;;;21.27;11.18;;;;;;;6.93;57.17;93960.75;4966440;28;20552;-76
2023/11/10 08:38:49;;;;;;;16.42;11.70;;;;;;;7.13;57.01;93960.47;4947460;28;20045;-76
2023/11/10 08:41:15;;;;;;;20.50;14.00;;;;;;;7.32;56.80;93946.41;4948821;28;20038;-74
2023/11/10 08:43:40;;;;;;;19.98;15.63;;;;;;;7.58;56.53;93961.56;4951641;28;20030;-74
2023/11/10 08:46:07;;;;;;;19.60;13.65;;;;;;;7.50;55.67;93964.09;4968728;28;20031;-74
2023/11/10 08:48:32;;;;;;;21.52;12.23;;;;;;;7.32;55.40;93951.72;4968559;28;20034;-75
2023/11/10 08:50:58;;;;;;;18.77;12.65;;;;;;;7.31;56.48;93945.63;4969073;28;20035;-75
2023/11/10 08:53:24;;;;;;;17.08;9.55;;;;;;;7.33;56.16;93948.00;4967341;28;20050;-75
2023/11/10 08:55:49;;;;;;;16.10;10.52;;;;;;;7.40;56.42;93949.19;4966782;28;20069;-74
2023/11/10 08:58:17;;;;;;;15.95;10.40;;;;;;;7.49;56.47;93942.16;4969883;28;20113;-75
2023/11/10 09:00:43;;;;;;;15.57;10.55;;;;;;;7.28;55.63;93931.13;4966851;28;20030;-74
2023/11/10 09:03:09;;;;;;;15.90;10.18;;;;;;;7.36;55.24;93937.59;4973223;28;20042;-76
2023/11/10 09:05:34;;;;;;;17.17;9.48;;;;;;;7.60;55.88;93937.47;4967478;28;20489;-75
2023/11/10 09:08:00;;;;;;;16.92;10.30;;;;;;;7.87;55.16;93936.78;4967984;28;20118;-74
2023/11/10 09:10:25;;;;;;;18.77;9.90;;;;;;;7.86;55.63;93924.63;4966862;28;20041;-75
2023/11/10 09:12:51;;;;;;;12.48;9.73;;;;;;;7.82;55.45;93923.63;4967419;28;20114;-75
2023/11/10 09:15:16;;;;;;;16.35;10.18;;;;;;;8.05;55.11;93917.38;4968238;28;20409;-75
2023/11/10 09:17:44;;;;;;;51.95;12.25;;;;;;;8.00;54.46;93918.25;4968007;28;20087;-75
2023/11/10 09:20:10;;;;;;;16.30;9.40;;;;;;;8.09;55.43;93931.59;4967795;28;20287;-75
2023/11/10 09:22:36;;;;;;;15.10;8.57;;;;;;;8.02;54.13;93912.66;4966965;28;20085;-75
2023/11/10 09:25:04;;;;;;;13.05;8.93;;;;;;;8.09;54.15;93899.81;4968424;28;20671;-75
2023/11/10 09:27:30;;;;;;;19.45;11.10;;;;;;;7.95;54.45;93901.66;4967816;28;20046;-75
2023/11/10 09:29:56;;;;;;;13.40;9.18;;;;;;;8.12;53.91;93907.16;4966059;28;20039;-74
2023/11/10 09:32:22;;;;;;;13.25;8.85;;;;;;;8.34;53.93;93903.81;4967717;28;20046;-74
2023/11/10 09:34:47;;;;;;;17.95;9.50;;;;;;;8.49;53.94;93906.94;4965428;28;21179;-74
2023/11/10 09:37:14;;;;;;;15.63;8.95;;;;;;;8.38;53.38;93889.66;4967010;28;20585;-75
2023/11/10 09:39:39;;;;;;;14.80;9.55;;;;;;;8.40;53.71;93902.63;4967201;28;20015;-74
2023/11/10 09:42:07;;;;;;;15.23;10.05;;;;;;;8.54;54.10;93888.28;4965944;28;20085;-75
2023/11/10 09:44:39;;;;;;;13.40;9.20;;;;;;;8.37;53.39;93877.50;4968226;28;20125;-74
2023/11/10 09:47:05;;;;;;;16.95;9.75;;;;;;;8.29;53.35;93872.91;4966736;28;20030;-75
2023/11/10 09:49:32;;;;;;;14.90;9.98;;;;;;;8.23;54.19;93876.72;4966705;28;20228;-75
2023/11/10 09:52:00;;;;;;;18.98;11.60;;;;;;;8.14;54.71;93852.00;4965603;28;20034;-75
2023/11/10 09:54:27;;;;;;;16.38;11.95;;;;;;;8.33;54.62;93873.88;4968027;28;20129;-74
2023/11/10 09:56:55;;;;;;;21.55;10.68;;;;;;;8.24;54.95;93862.41;4966734;28;20073;-75
2023/11/10 09:59:27;;;;;;;18.02;9.95;;;;;;;8.43;54.48;93868.34;4966551;28;20255;-74
2023/11/10 10:01:53;;;;;;;12.80;9.52;;;;;;;8.62;53.89;93860.25;4963194;28;20690;-75
2023/11/10 10:04:19;;;;;;;18.85;11.18;;;;;;;8.82;54.27;93845.75;4963106;28;20032;-75
2023/11/10 10:06:52;;;;;;;16.73;10.55;;;;;;;8.83;53.51;93842.03;4982257;28;20027;-74
2023/11/10 10:09:18;;;;;;;19.40;9.63;;;;;;;8.69;53.37;93839.44;4960519;28;20161;-74
2023/11/10 10:11:45;;;;;;;17.30;10.65;;;;;;;8.43;53.97;93835.78;4961618;28;20044;-74
2023/11/10 10:14:12;;;;;;;13.60;10.02;;;;;;;8.57;54.34;93831.22;4959745;28;21187;-75
2023/11/10 10:16:38;;;;;;;13.55;9.52;;;;;;;8.67;53.96;93799.16;4983768;28;20030;-75
2023/11/10 10:19:04;;;;;;;18.10;10.02;;;;;;;8.82;53.96;93806.78;4964972;28;20366;-74
2023/11/10 10:21:40;;;;;;;13.55;9.13;;;;;;;8.68;53.86;93794.66;4966662;28;20034;-75
2023/11/10 10:24:06;;;;;;;11.13;7.38;;;;;;;8.81;53.60;93801.75;4960522;28;20058;-75
2023/11/10 10:26:33;;;;;;;15.13;8.80;;;;;;;8.90;53.46;93794.66;4972407;28;20042;-75
2023/11/10 10:29:00;;;;;;;19.13;9.25;;;;;;;8.99;53.00;93792.84;4965859;28;20113;-75
2023/11/10 10:31:29;;;;;;;15.32;8.43;;;;;;;8.78;53.77;93776.63;4965239;28;20369;-75
2023/11/10 10:33:55;;;;;;;11.90;9.43;;;;;;;8.55;54.21;93759.97;4966580;28;20231;-75
2023/11/10 10:36:20;;;;;;;15.20;9.27;;;;;;;8.56;54.33;93760.72;4964079;28;20047;-76
2023/11/10 10:38:53;;;;;;;11.75;8.40;;;;;;;8.78;53.70;93754.63;4971234;28;20042;-74
2023/11/10 10:41:20;;;;;;;19.20;8.75;;;;;;;8.83;53.41;93759.81;4964590;28;20476;-75
2023/11/10 10:43:50;;;;;;;10.68;7.43;;;;;;;8.36;54.05;93743.44;4965835;28;20027;-75
2023/11/10 10:46:19;;;;;;;9.15;7.30;;;;;;;8.47;54.29;93738.66;4966094;28;20448;-75
2023/11/10 10:48:48;;;;;;;9.32;6.68;;;;;;;8.31;54.59;93722.38;4960490;28;20030;-75
2023/11/10 10:51:17;;;;;;;121.03;61.53;;;;;;;8.78;53.43;93739.50;4966854;28;20026;-75
2023/11/10 10:53:44;;;;;;;12.35;9.25;;;;;;;8.88;53.66;93722.56;4964623;28;20082;-74
2023/11/10 10:56:12;;;;;;;9.50;7.20;;;;;;;8.82;53.69;93724.56;4969811;28;20428;-74
2023/11/10 10:58:38;;;;;;;8.95;6.60;;;;;;;9.10;53.32;93722.50;4963795;28;20030;-75
2023/11/10 11:01:07;;;;;;;10.88;7.68;;;;;;;9.28;53.03;93726.06;4967861;28;20022;-76
2023/11/10 11:03:55;;;;;;;9.68;7.22;;;;;;;9.30;51.79;93739.78;4965847;28;20576;-75
2023/11/10 11:06:49;;;;;;;10.40;7.40;;;;;;;9.51;52.34;93729.41;4965910;28;20409;-76
2023/11/10 11:09:34;;;;;;;10.10;7.13;;;;;;;9.11;51.80;93721.44;4952147;28;20034;-75
2023/11/10 11:12:21;;;;;;;9.80;8.02;;;;;;;9.30;52.71;93731.84;4980486;28;20470;-75
2023/11/10 11:15:25;;;;;;;12.82;7.07;;;;;;;9.80;54.08;93727.00;4967251;28;20206;-75
2023/11/10 11:18:32;;;;;;;10.30;6.78;;;;;;;9.49;51.92;93681.16;4958420;28;20073;-76
2023/11/10 11:20:58;;;;;;;8.52;6.28;;;;;;;9.68;51.75;93702.94;4964841;28;20045;-75
2023/11/10 11:23:24;;;;;;;9.57;6.15;;;;;;;9.45;52.19;93702.22;4960109;28;20122;-76
2023/11/10 11:25:58;;;;;;;8.20;6.78;;;;;;;9.79;51.87;93696.19;4965601;28;20041;-76
2023/11/10 11:28:39;;;;;;;8.05;6.70;;;;;;;9.82;51.40;93703.56;4966191;28;20385;-75
2023/11/10 11:31:09;;;;;;;8.85;6.85;;;;;;;9.81;51.63;93681.53;4966786;28;20018;-76
2023/11/10 11:33:42;;;;;;;7.80;5.95;;;;;;;9.31;52.16;93689.06;4946883;28;20572;-75
2023/11/10 11:36:12;;;;;;;9.80;6.75;;;;;;;9.28;52.56;93676.44;4946108;28;20097;-75